British Ruby — 2AKI2 — position and weather

sailwx.info

Track history (hours):
 
Tides and Currents Weather Stations Pressure Air Temp Water Temp Dewpoint Dewpoint Depression Visibility Wind Speed Wind Dir Waves Ship Positions

British Ruby

Last reported at 2015-Jan-23 14:00 UTC. Time now 2015-Jan-29 22:26 UTC.
Position N 13°18' W 055°12'.

Length 288 m; draft 10 m.

Type: Ship (hazmat cat C). MMSI: 235060453.

Wind from 060 at 11 knots

Barometer 1016.9 mb
Air temperature 26.0 ° C
Visibility: greater than 10.8 NM
Dewpoint 21.5 ° C
Water temperature 27.3 ° C

Date/timePositionNaut miles runAvg speedWind from/ knotsBaromVisibWave heightAir tempDewpointWater temp
2015-Jan-23 14:00N 13°18' W 055°12'   060 / 111016.910.8 26.021.527.3
2015-Jan-15 13:33N 35°59' W 005°31'1212.5
2015-Jan-15 12:34N 36°02' W 005°16'8615.5
2015-Jan-15 07:00N 36°12' W 003°30'6116.6 270 / 31023.110.8 14.912.516.2
2015-Jan-15 03:18N 36°25' W 002°16'1216.2
2015-Jan-15 02:33N 36°29' W 002°01'2316.0
2015-Jan-15 01:07N 36°36' W 001°34'1216.3
2015-Jan-15 00:23N 36°40' W 001°20'1516.3
2015-Jan-14 23:27N 36°46' W 001°03'1616.0
2015-Jan-14 22:26N 36°51' W 000°43'1415.8
2015-Jan-14 21:33N 36°55' W 000°27'1715.9
2015-Jan-14 20:29N 37°01' W 000°07'1916.5
2015-Jan-14 19:19N 37°04' E 000°17'4914.7
2015-Jan-14 16:00N 37°06' E 001°18'3020.1 020 / 31025.8 15.013.016.1
2015-Jan-14 14:30N 37°13' E 001°55'2016.3
2015-Jan-14 13:17N 37°16' E 002°19'1216.3
2015-Jan-14 12:34N 37°17' E 002°34'1616.2
2015-Jan-14 11:33N 37°19' E 002°55'1616.1
2015-Jan-14 10:33N 37°22' E 003°14'1616.2
2015-Jan-14 09:33N 37°24' E 003°35'1615.5
2015-Jan-14 08:33N 37°25' E 003°54'1615.8
2015-Jan-14 07:32N 37°27' E 004°14'1615.8
2015-Jan-14 06:33N 37°29' E 004°34'1615.6
2015-Jan-14 05:32N 37°31' E 004°54'1615.6
2015-Jan-14 04:31N 37°33' E 005°13'1616.1
2015-Jan-14 03:30N 37°35' E 005°34'13016.3
2015-Jan-13 19:33N 37°50' E 008°17'1616.2
2015-Jan-13 18:32N 37°51' E 008°37'1615.9
2015-Jan-13 17:32N 37°52' E 008°57'2115.9
2015-Jan-13 16:13N 37°50' E 009°24'  
Track history (hours):
 
Tides and Currents Weather Stations Pressure Air Temp Water Temp Dewpoint Dewpoint Depression Visibility Wind Speed Wind Dir Waves Ship Positions

British Ruby

Last reported at 2015-Jan-23 14:00 UTC. Time now 2015-Jan-29 22:26 UTC.
Position N 13°18' W 055°12'.

Length 288 m; draft 10 m.

Type: Ship (hazmat cat C). MMSI: 235060453.

Wind from 060 at 11 knots

Barometer 1016.9 mb
Air temperature 26.0 ° C
Visibility: greater than 10.8 NM
Dewpoint 21.5 ° C
Water temperature 27.3 ° C

Date/timePositionNaut miles runAvg speedWind from/ knotsBaromVisibWave heightAir tempDewpointWater temp
2015-Jan-23 14:00N 13°18' W 055°12'   060 / 111016.910.8 26.021.527.3
2015-Jan-15 13:33N 35°59' W 005°31'1212.5
2015-Jan-15 12:34N 36°02' W 005°16'8615.5
2015-Jan-15 07:00N 36°12' W 003°30'6116.6 270 / 31023.110.8 14.912.516.2
2015-Jan-15 03:18N 36°25' W 002°16'1216.2
2015-Jan-15 02:33N 36°29' W 002°01'2316.0
2015-Jan-15 01:07N 36°36' W 001°34'1216.3
2015-Jan-15 00:23N 36°40' W 001°20'1516.3
2015-Jan-14 23:27N 36°46' W 001°03'1616.0
2015-Jan-14 22:26N 36°51' W 000°43'1415.8
2015-Jan-14 21:33N 36°55' W 000°27'1715.9
2015-Jan-14 20:29N 37°01' W 000°07'1916.5
2015-Jan-14 19:19N 37°04' E 000°17'4914.7
2015-Jan-14 16:00N 37°06' E 001°18'3020.1 020 / 31025.8 15.013.016.1
2015-Jan-14 14:30N 37°13' E 001°55'2016.3
2015-Jan-14 13:17N 37°16' E 002°19'1216.3
2015-Jan-14 12:34N 37°17' E 002°34'1616.2
2015-Jan-14 11:33N 37°19' E 002°55'1616.1
2015-Jan-14 10:33N 37°22' E 003°14'1616.2
2015-Jan-14 09:33N 37°24' E 003°35'1615.5
2015-Jan-14 08:33N 37°25' E 003°54'1615.8
2015-Jan-14 07:32N 37°27' E 004°14'1615.8
2015-Jan-14 06:33N 37°29' E 004°34'1615.6
2015-Jan-14 05:32N 37°31' E 004°54'1615.6
2015-Jan-14 04:31N 37°33' E 005°13'1616.1
2015-Jan-14 03:30N 37°35' E 005°34'13016.3
2015-Jan-13 19:33N 37°50' E 008°17'1616.2
2015-Jan-13 18:32N 37°51' E 008°37'1615.9
2015-Jan-13 17:32N 37°52' E 008°57'2115.9
2015-Jan-13 16:13N 37°50' E 009°24'  

Dump ship's entire track history